sensor_id;sensor_type;location;lat;lon;timestamp;P1;durP1;ratioP1;P2;durP2;ratioP2
29218;SDS011;16421;50.202;7.852;2023-04-24T00:00:45;0.73;;;0.40;;
29218;SDS011;16421;50.202;7.852;2023-04-24T00:05:48;0.40;;;0.40;;
29218;SDS011;16421;50.202;7.852;2023-04-24T00:10:52;0.20;;;0.20;;
29218;SDS011;16421;50.202;7.852;2023-04-24T00:15:56;0.50;;;0.35;;
29218;SDS011;16421;50.202;7.852;2023-04-24T00:21:00;0.38;;;0.38;;
29218;SDS011;16421;50.202;7.852;2023-04-24T00:26:04;0.30;;;0.30;;
29218;SDS011;16421;50.202;7.852;2023-04-24T00:31:08;1.15;;;0.40;;
29218;SDS011;16421;50.202;7.852;2023-04-24T00:36:12;0.75;;;0.30;;
29218;SDS011;16421;50.202;7.852;2023-04-24T00:41:15;0.35;;;0.35;;
29218;SDS011;16421;50.202;7.852;2023-04-24T00:46:20;1.95;;;0.60;;
29218;SDS011;16421;50.202;7.852;2023-04-24T00:51:23;0.38;;;0.30;;
29218;SDS011;16421;50.202;7.852;2023-04-24T00:56:28;0.30;;;0.28;;
29218;SDS011;16421;50.202;7.852;2023-04-24T01:01:33;2.15;;;0.40;;
29218;SDS011;16421;50.202;7.852;2023-04-24T01:06:38;1.67;;;0.40;;
29218;SDS011;16421;50.202;7.852;2023-04-24T01:11:42;0.65;;;0.20;;
29218;SDS011;16421;50.202;7.852;2023-04-24T01:16:47;0.22;;;0.22;;
29218;SDS011;16421;50.202;7.852;2023-04-24T01:21:52;0.55;;;0.30;;
29218;SDS011;16421;50.202;7.852;2023-04-24T01:27:01;0.20;;;0.20;;
29218;SDS011;16421;50.202;7.852;2023-04-24T01:32:05;0.35;;;0.20;;
29218;SDS011;16421;50.202;7.852;2023-04-24T01:37:08;0.15;;;0.15;;
29218;SDS011;16421;50.202;7.852;2023-04-24T01:42:13;0.30;;;0.25;;
29218;SDS011;16421;50.202;7.852;2023-04-24T01:47:16;0.30;;;0.20;;
29218;SDS011;16421;50.202;7.852;2023-04-24T01:52:20;0.20;;;0.20;;
29218;SDS011;16421;50.202;7.852;2023-04-24T01:57:25;0.30;;;0.30;;
29218;SDS011;16421;50.202;7.852;2023-04-24T02:02:28;0.32;;;0.30;;
29218;SDS011;16421;50.202;7.852;2023-04-24T02:07:31;0.50;;;0.50;;
29218;SDS011;16421;50.202;7.852;2023-04-24T02:12:36;0.93;;;0.40;;
29218;SDS011;16421;50.202;7.852;2023-04-24T02:17:39;0.88;;;0.57;;
29218;SDS011;16421;50.202;7.852;2023-04-24T02:22:42;0.50;;;0.45;;
29218;SDS011;16421;50.202;7.852;2023-04-24T02:27:47;0.75;;;0.50;;
29218;SDS011;16421;50.202;7.852;2023-04-24T02:32:51;0.70;;;0.70;;
29218;SDS011;16421;50.202;7.852;2023-04-24T02:37:54;0.88;;;0.70;;
29218;SDS011;16421;50.202;7.852;2023-04-24T02:42:59;1.00;;;0.70;;
29218;SDS011;16421;50.202;7.852;2023-04-24T02:48:02;1.58;;;0.77;;
29218;SDS011;16421;50.202;7.852;2023-04-24T02:53:06;0.85;;;0.50;;
29218;SDS011;16421;50.202;7.852;2023-04-24T02:58:11;0.60;;;0.60;;
29218;SDS011;16421;50.202;7.852;2023-04-24T03:03:15;1.95;;;1.10;;
29218;SDS011;16421;50.202;7.852;2023-04-24T03:13:25;1.00;;;0.90;;
29218;SDS011;16421;50.202;7.852;2023-04-24T03:18:29;1.10;;;1.00;;
29218;SDS011;16421;50.202;7.852;2023-04-24T03:23:32;1.50;;;1.20;;
29218;SDS011;16421;50.202;7.852;2023-04-24T03:28:37;2.00;;;1.45;;
29218;SDS011;16421;50.202;7.852;2023-04-24T03:33:41;1.23;;;1.13;;
29218;SDS011;16421;50.202;7.852;2023-04-24T03:38:44;2.17;;;1.30;;
29218;SDS011;16421;50.202;7.852;2023-04-24T03:43:59;1.30;;;1.13;;
29218;SDS011;16421;50.202;7.852;2023-04-24T03:49:04;0.98;;;0.85;;
29218;SDS011;16421;50.202;7.852;2023-04-24T03:54:11;1.25;;;0.65;;
29218;SDS011;16421;50.202;7.852;2023-04-24T03:59:16;2.08;;;1.30;;
29218;SDS011;16421;50.202;7.852;2023-04-24T04:04:25;1.00;;;0.90;;
29218;SDS011;16421;50.202;7.852;2023-04-24T04:09:29;1.10;;;0.82;;
29218;SDS011;16421;50.202;7.852;2023-04-24T04:14:33;1.20;;;1.10;;
29218;SDS011;16421;50.202;7.852;2023-04-24T04:19:37;1.42;;;1.00;;
29218;SDS011;16421;50.202;7.852;2023-04-24T04:24:41;2.35;;;1.40;;
29218;SDS011;16421;50.202;7.852;2023-04-24T04:29:47;2.63;;;1.33;;
29218;SDS011;16421;50.202;7.852;2023-04-24T04:34:51;1.83;;;1.30;;
29218;SDS011;16421;50.202;7.852;2023-04-24T04:39:58;3.92;;;1.50;;
29218;SDS011;16421;50.202;7.852;2023-04-24T04:45:09;2.25;;;1.42;;
29218;SDS011;16421;50.202;7.852;2023-04-24T04:50:27;1.60;;;1.25;;
29218;SDS011;16421;50.202;7.852;2023-04-24T04:55:36;1.35;;;0.88;;
29218;SDS011;16421;50.202;7.852;2023-04-24T05:00:50;1.17;;;1.08;;
29218;SDS011;16421;50.202;7.852;2023-04-24T05:06:02;2.42;;;0.80;;
29218;SDS011;16421;50.202;7.852;2023-04-24T05:11:08;0.73;;;0.70;;
29218;SDS011;16421;50.202;7.852;2023-04-24T05:16:15;1.27;;;1.10;;
29218;SDS011;16421;50.202;7.852;2023-04-24T05:21:18;1.30;;;1.13;;
29218;SDS011;16421;50.202;7.852;2023-04-24T05:31:31;1.15;;;0.77;;
29218;SDS011;16421;50.202;7.852;2023-04-24T05:36:35;0.85;;;0.82;;
29218;SDS011;16421;50.202;7.852;2023-04-24T05:41:38;1.58;;;0.90;;
29218;SDS011;16421;50.202;7.852;2023-04-24T05:46:43;1.45;;;1.05;;
29218;SDS011;16421;50.202;7.852;2023-04-24T05:51:46;1.85;;;1.35;;
29218;SDS011;16421;50.202;7.852;2023-04-24T05:56:51;1.60;;;1.10;;
29218;SDS011;16421;50.202;7.852;2023-04-24T06:02:08;1.25;;;1.10;;
29218;SDS011;16421;50.202;7.852;2023-04-24T06:07:11;1.52;;;1.30;;
29218;SDS011;16421;50.202;7.852;2023-04-24T06:12:17;3.13;;;1.00;;
29218;SDS011;16421;50.202;7.852;2023-04-24T06:17:34;1.38;;;1.08;;
29218;SDS011;16421;50.202;7.852;2023-04-24T06:22:38;2.70;;;1.43;;
29218;SDS011;16421;50.202;7.852;2023-04-24T06:27:44;1.20;;;1.10;;
29218;SDS011;16421;50.202;7.852;2023-04-24T06:32:50;1.33;;;1.15;;
29218;SDS011;16421;50.202;7.852;2023-04-24T06:37:54;1.80;;;1.40;;
29218;SDS011;16421;50.202;7.852;2023-04-24T06:42:58;2.47;;;1.95;;
29218;SDS011;16421;50.202;7.852;2023-04-24T06:48:05;1.30;;;1.17;;
29218;SDS011;16421;50.202;7.852;2023-04-24T06:53:08;1.83;;;1.42;;
29218;SDS011;16421;50.202;7.852;2023-04-24T06:58:13;2.10;;;1.45;;
29218;SDS011;16421;50.202;7.852;2023-04-24T07:03:18;1.30;;;1.20;;
29218;SDS011;16421;50.202;7.852;2023-04-24T07:08:22;1.50;;;1.35;;
29218;SDS011;16421;50.202;7.852;2023-04-24T07:13:27;3.15;;;1.67;;
29218;SDS011;16421;50.202;7.852;2023-04-24T07:18:32;3.22;;;2.88;;
29218;SDS011;16421;50.202;7.852;2023-04-24T07:23:36;3.03;;;2.30;;
29218;SDS011;16421;50.202;7.852;2023-04-24T07:28:39;2.42;;;2.00;;
29218;SDS011;16421;50.202;7.852;2023-04-24T07:33:44;4.22;;;2.60;;
29218;SDS011;16421;50.202;7.852;2023-04-24T07:38:48;5.60;;;2.55;;
29218;SDS011;16421;50.202;7.852;2023-04-24T07:43:52;3.17;;;2.70;;
29218;SDS011;16421;50.202;7.852;2023-04-24T07:48:57;3.50;;;2.30;;
29218;SDS011;16421;50.202;7.852;2023-04-24T07:54:09;2.80;;;2.13;;
29218;SDS011;16421;50.202;7.852;2023-04-24T07:59:13;4.65;;;2.53;;
29218;SDS011;16421;50.202;7.852;2023-04-24T08:04:18;2.20;;;2.00;;
29218;SDS011;16421;50.202;7.852;2023-04-24T08:09:21;2.20;;;2.00;;
29218;SDS011;16421;50.202;7.852;2023-04-24T08:14:26;3.88;;;2.30;;
29218;SDS011;16421;50.202;7.852;2023-04-24T08:19:30;3.17;;;1.83;;
29218;SDS011;16421;50.202;7.852;2023-04-24T08:24:34;2.20;;;1.83;;
29218;SDS011;16421;50.202;7.852;2023-04-24T08:29:37;4.65;;;2.35;;
29218;SDS011;16421;50.202;7.852;2023-04-24T08:34:42;2.35;;;1.85;;
29218;SDS011;16421;50.202;7.852;2023-04-24T08:39:46;2.10;;;1.67;;
29218;SDS011;16421;50.202;7.852;2023-04-24T08:44:49;1.40;;;1.30;;
29218;SDS011;16421;50.202;7.852;2023-04-24T08:49:54;3.15;;;1.90;;
29218;SDS011;16421;50.202;7.852;2023-04-24T08:55:00;1.70;;;1.30;;
29218;SDS011;16421;50.202;7.852;2023-04-24T09:00:04;1.60;;;1.50;;
29218;SDS011;16421;50.202;7.852;2023-04-24T09:05:12;4.05;;;2.05;;
29218;SDS011;16421;50.202;7.852;2023-04-24T09:10:16;2.57;;;1.40;;
29218;SDS011;16421;50.202;7.852;2023-04-24T09:15:19;1.55;;;1.40;;
29218;SDS011;16421;50.202;7.852;2023-04-24T09:20:24;2.53;;;1.73;;
29218;SDS011;16421;50.202;7.852;2023-04-24T09:25:30;3.10;;;1.50;;
29218;SDS011;16421;50.202;7.852;2023-04-24T09:30:37;2.40;;;1.55;;
29218;SDS011;16421;50.202;7.852;2023-04-24T09:35:42;1.38;;;1.10;;
29218;SDS011;16421;50.202;7.852;2023-04-24T09:40:51;1.77;;;1.30;;
29218;SDS011;16421;50.202;7.852;2023-04-24T09:52:07;2.80;;;1.05;;
29218;SDS011;16421;50.202;7.852;2023-04-24T09:57:28;1.92;;;1.20;;
29218;SDS011;16421;50.202;7.852;2023-04-24T10:03:01;2.50;;;1.20;;
29218;SDS011;16421;50.202;7.852;2023-04-24T10:08:23;1.92;;;1.50;;
29218;SDS011;16421;50.202;7.852;2023-04-24T10:14:00;2.78;;;1.50;;
29218;SDS011;16421;50.202;7.852;2023-04-24T10:19:31;1.80;;;1.65;;
29218;SDS011;16421;50.202;7.852;2023-04-24T10:24:45;4.97;;;1.80;;
29218;SDS011;16421;50.202;7.852;2023-04-24T10:30:12;3.05;;;1.67;;
29218;SDS011;16421;50.202;7.852;2023-04-24T10:35:31;2.30;;;1.73;;
29218;SDS011;16421;50.202;7.852;2023-04-24T10:40:52;2.55;;;2.17;;
29218;SDS011;16421;50.202;7.852;2023-04-24T10:46:27;3.25;;;1.75;;
29218;SDS011;16421;50.202;7.852;2023-04-24T10:57:35;2.60;;;1.67;;
29218;SDS011;16421;50.202;7.852;2023-04-24T11:02:49;2.97;;;1.88;;
29218;SDS011;16421;50.202;7.852;2023-04-24T11:08:13;2.63;;;2.05;;
29218;SDS011;16421;50.202;7.852;2023-04-24T11:19:24;3.95;;;2.55;;
29218;SDS011;16421;50.202;7.852;2023-04-24T11:24:48;4.87;;;2.80;;
29218;SDS011;16421;50.202;7.852;2023-04-24T11:30:03;3.13;;;2.20;;
29218;SDS011;16421;50.202;7.852;2023-04-24T11:35:13;4.53;;;2.97;;
29218;SDS011;16421;50.202;7.852;2023-04-24T11:40:24;3.35;;;2.63;;
29218;SDS011;16421;50.202;7.852;2023-04-24T11:45:38;4.03;;;2.15;;
29218;SDS011;16421;50.202;7.852;2023-04-24T11:51:05;3.80;;;2.63;;
29218;SDS011;16421;50.202;7.852;2023-04-24T11:56:16;6.57;;;3.58;;
29218;SDS011;16421;50.202;7.852;2023-04-24T12:01:25;4.40;;;2.60;;
29218;SDS011;16421;50.202;7.852;2023-04-24T12:06:31;5.30;;;2.33;;
29218;SDS011;16421;50.202;7.852;2023-04-24T12:11:35;2.93;;;2.13;;
29218;SDS011;16421;50.202;7.852;2023-04-24T12:16:41;4.95;;;2.20;;
29218;SDS011;16421;50.202;7.852;2023-04-24T12:22:00;4.70;;;2.63;;
29218;SDS011;16421;50.202;7.852;2023-04-24T12:27:04;4.80;;;2.77;;
29218;SDS011;16421;50.202;7.852;2023-04-24T12:32:15;4.70;;;2.97;;
29218;SDS011;16421;50.202;7.852;2023-04-24T12:37:20;6.07;;;3.25;;
29218;SDS011;16421;50.202;7.852;2023-04-24T12:42:25;3.00;;;1.73;;
29218;SDS011;16421;50.202;7.852;2023-04-24T12:47:29;3.97;;;2.55;;
29218;SDS011;16421;50.202;7.852;2023-04-24T12:52:35;3.13;;;2.45;;
29218;SDS011;16421;50.202;7.852;2023-04-24T12:57:39;4.30;;;3.47;;
29218;SDS011;16421;50.202;7.852;2023-04-24T13:02:42;3.63;;;2.70;;
29218;SDS011;16421;50.202;7.852;2023-04-24T13:07:47;3.65;;;2.30;;
29218;SDS011;16421;50.202;7.852;2023-04-24T13:12:50;6.38;;;3.50;;
29218;SDS011;16421;50.202;7.852;2023-04-24T13:17:54;4.60;;;2.70;;
29218;SDS011;16421;50.202;7.852;2023-04-24T13:22:59;6.18;;;3.38;;
29218;SDS011;16421;50.202;7.852;2023-04-24T13:28:03;4.90;;;3.00;;
29218;SDS011;16421;50.202;7.852;2023-04-24T13:33:07;4.65;;;2.80;;
29218;SDS011;16421;50.202;7.852;2023-04-24T13:38:12;7.22;;;3.67;;
29218;SDS011;16421;50.202;7.852;2023-04-24T13:43:16;6.68;;;3.00;;
29218;SDS011;16421;50.202;7.852;2023-04-24T13:48:19;4.07;;;2.70;;
29218;SDS011;16421;50.202;7.852;2023-04-24T13:53:24;4.55;;;2.72;;
29218;SDS011;16421;50.202;7.852;2023-04-24T13:58:28;4.28;;;2.13;;
29218;SDS011;16421;50.202;7.852;2023-04-24T14:03:32;4.25;;;2.40;;
29218;SDS011;16421;50.202;7.852;2023-04-24T14:08:37;5.00;;;2.85;;
29218;SDS011;16421;50.202;7.852;2023-04-24T14:13:41;4.22;;;3.00;;
29218;SDS011;16421;50.202;7.852;2023-04-24T14:18:45;4.70;;;3.08;;
29218;SDS011;16421;50.202;7.852;2023-04-24T14:23:50;2.70;;;2.10;;
29218;SDS011;16421;50.202;7.852;2023-04-24T14:28:53;4.50;;;2.60;;
29218;SDS011;16421;50.202;7.852;2023-04-24T14:34:01;4.13;;;2.75;;
29218;SDS011;16421;50.202;7.852;2023-04-24T14:39:06;4.15;;;2.67;;
29218;SDS011;16421;50.202;7.852;2023-04-24T14:44:09;5.82;;;2.72;;
29218;SDS011;16421;50.202;7.852;2023-04-24T14:49:13;5.07;;;2.88;;
29218;SDS011;16421;50.202;7.852;2023-04-24T14:54:21;4.88;;;2.40;;
29218;SDS011;16421;50.202;7.852;2023-04-24T14:59:25;6.75;;;3.55;;
29218;SDS011;16421;50.202;7.852;2023-04-24T15:04:29;4.18;;;2.50;;
29218;SDS011;16421;50.202;7.852;2023-04-24T15:09:34;5.85;;;3.45;;
29218;SDS011;16421;50.202;7.852;2023-04-24T15:14:38;4.35;;;2.60;;
29218;SDS011;16421;50.202;7.852;2023-04-24T15:19:41;3.67;;;2.15;;
29218;SDS011;16421;50.202;7.852;2023-04-24T15:24:46;4.20;;;2.53;;
29218;SDS011;16421;50.202;7.852;2023-04-24T15:29:49;3.90;;;2.47;;
29218;SDS011;16421;50.202;7.852;2023-04-24T15:34:54;3.90;;;2.40;;
29218;SDS011;16421;50.202;7.852;2023-04-24T15:40:07;4.70;;;2.55;;
29218;SDS011;16421;50.202;7.852;2023-04-24T15:45:13;3.08;;;2.10;;
29218;SDS011;16421;50.202;7.852;2023-04-24T15:50:16;6.75;;;3.33;;
29218;SDS011;16421;50.202;7.852;2023-04-24T15:55:23;4.23;;;2.33;;
29218;SDS011;16421;50.202;7.852;2023-04-24T16:00:26;3.60;;;2.20;;
29218;SDS011;16421;50.202;7.852;2023-04-24T16:05:34;5.43;;;2.78;;
29218;SDS011;16421;50.202;7.852;2023-04-24T16:10:40;3.42;;;2.25;;
29218;SDS011;16421;50.202;7.852;2023-04-24T16:20:48;2.85;;;1.75;;
29218;SDS011;16421;50.202;7.852;2023-04-24T16:25:53;2.63;;;1.77;;
29218;SDS011;16421;50.202;7.852;2023-04-24T16:30:59;4.78;;;2.42;;
29218;SDS011;16421;50.202;7.852;2023-04-24T16:36:02;5.22;;;2.40;;
29218;SDS011;16421;50.202;7.852;2023-04-24T16:41:09;4.18;;;2.35;;
29218;SDS011;16421;50.202;7.852;2023-04-24T16:46:12;2.05;;;1.52;;
29218;SDS011;16421;50.202;7.852;2023-04-24T16:51:15;3.00;;;1.90;;
29218;SDS011;16421;50.202;7.852;2023-04-24T16:56:21;4.13;;;1.80;;
29218;SDS011;16421;50.202;7.852;2023-04-24T17:01:24;2.50;;;1.70;;
29218;SDS011;16421;50.202;7.852;2023-04-24T17:06:27;4.07;;;1.90;;
29218;SDS011;16421;50.202;7.852;2023-04-24T17:11:33;2.58;;;1.65;;
29218;SDS011;16421;50.202;7.852;2023-04-24T17:16:38;3.28;;;2.35;;
29218;SDS011;16421;50.202;7.852;2023-04-24T17:21:42;3.58;;;2.35;;
29218;SDS011;16421;50.202;7.852;2023-04-24T17:26:47;4.13;;;2.35;;
29218;SDS011;16421;50.202;7.852;2023-04-24T17:31:51;2.90;;;1.60;;
29218;SDS011;16421;50.202;7.852;2023-04-24T17:36:55;2.83;;;1.60;;
29218;SDS011;16421;50.202;7.852;2023-04-24T17:42:00;4.35;;;2.60;;
29218;SDS011;16421;50.202;7.852;2023-04-24T17:47:03;4.00;;;3.38;;
29218;SDS011;16421;50.202;7.852;2023-04-24T17:52:07;5.60;;;3.50;;
29218;SDS011;16421;50.202;7.852;2023-04-24T17:57:13;4.55;;;3.10;;
29218;SDS011;16421;50.202;7.852;2023-04-24T18:02:17;7.50;;;3.67;;
29218;SDS011;16421;50.202;7.852;2023-04-24T19:17:09;1.85;;;1.63;;
29218;SDS011;16421;50.202;7.852;2023-04-24T19:22:12;1.80;;;1.55;;
29218;SDS011;16421;50.202;7.852;2023-04-24T19:41:47;1.85;;;1.40;;
29218;SDS011;16421;50.202;7.852;2023-04-24T19:46:53;2.42;;;1.40;;
29218;SDS011;16421;50.202;7.852;2023-04-24T19:51:56;1.70;;;1.48;;
29218;SDS011;16421;50.202;7.852;2023-04-24T19:57:01;2.88;;;2.28;;
29218;SDS011;16421;50.202;7.852;2023-04-24T20:02:05;2.47;;;1.83;;
29218;SDS011;16421;50.202;7.852;2023-04-24T20:07:08;3.75;;;2.00;;
29218;SDS011;16421;50.202;7.852;2023-04-24T20:12:13;2.78;;;1.80;;
29218;SDS011;16421;50.202;7.852;2023-04-24T20:17:17;3.05;;;1.80;;
29218;SDS011;16421;50.202;7.852;2023-04-24T20:22:20;3.45;;;2.65;;
29218;SDS011;16421;50.202;7.852;2023-04-24T20:27:25;4.55;;;3.17;;
29218;SDS011;16421;50.202;7.852;2023-04-24T20:32:30;2.85;;;2.05;;
29218;SDS011;16421;50.202;7.852;2023-04-24T20:37:33;3.22;;;2.58;;
29218;SDS011;16421;50.202;7.852;2023-04-24T20:42:38;3.72;;;2.50;;
29218;SDS011;16421;50.202;7.852;2023-04-24T20:47:42;1.73;;;1.48;;
29218;SDS011;16421;50.202;7.852;2023-04-24T20:52:48;3.05;;;1.90;;
29218;SDS011;16421;50.202;7.852;2023-04-24T21:02:56;2.13;;;1.67;;
29218;SDS011;16421;50.202;7.852;2023-04-24T21:08:00;3.25;;;2.33;;
29218;SDS011;16421;50.202;7.852;2023-04-24T21:13:04;1.83;;;1.58;;
29218;SDS011;16421;50.202;7.852;2023-04-24T21:18:08;3.35;;;1.85;;
29218;SDS011;16421;50.202;7.852;2023-04-24T21:23:11;3.30;;;2.63;;
29218;SDS011;16421;50.202;7.852;2023-04-24T21:28:16;2.30;;;2.08;;
29218;SDS011;16421;50.202;7.852;2023-04-24T21:33:19;2.38;;;1.60;;
29218;SDS011;16421;50.202;7.852;2023-04-24T21:38:23;2.65;;;2.00;;
29218;SDS011;16421;50.202;7.852;2023-04-24T21:43:27;1.65;;;1.50;;
29218;SDS011;16421;50.202;7.852;2023-04-24T21:48:37;1.70;;;1.60;;
29218;SDS011;16421;50.202;7.852;2023-04-24T21:53:40;2.03;;;1.30;;
29218;SDS011;16421;50.202;7.852;2023-04-24T21:58:45;1.83;;;1.25;;
29218;SDS011;16421;50.202;7.852;2023-04-24T22:03:49;1.38;;;1.27;;
29218;SDS011;16421;50.202;7.852;2023-04-24T22:08:52;2.05;;;1.65;;
29218;SDS011;16421;50.202;7.852;2023-04-24T22:13:57;1.52;;;1.20;;
29218;SDS011;16421;50.202;7.852;2023-04-24T22:19:00;1.45;;;0.98;;
29218;SDS011;16421;50.202;7.852;2023-04-24T22:24:05;1.05;;;0.90;;
29218;SDS011;16421;50.202;7.852;2023-04-24T22:29:10;1.50;;;1.27;;
29218;SDS011;16421;50.202;7.852;2023-04-24T22:34:13;1.70;;;1.45;;
29218;SDS011;16421;50.202;7.852;2023-04-24T22:39:17;1.40;;;1.08;;
29218;SDS011;16421;50.202;7.852;2023-04-24T22:44:23;1.17;;;1.00;;
29218;SDS011;16421;50.202;7.852;2023-04-24T22:49:26;1.80;;;1.63;;
29218;SDS011;16421;50.202;7.852;2023-04-24T22:54:30;1.85;;;1.38;;
29218;SDS011;16421;50.202;7.852;2023-04-24T22:59:36;3.50;;;2.70;;
29218;SDS011;16421;50.202;7.852;2023-04-24T23:04:39;2.53;;;1.90;;
29218;SDS011;16421;50.202;7.852;2023-04-24T23:09:42;2.97;;;1.70;;
29218;SDS011;16421;50.202;7.852;2023-04-24T23:14:47;3.55;;;2.72;;
29218;SDS011;16421;50.202;7.852;2023-04-24T23:19:50;3.80;;;2.90;;
29218;SDS011;16421;50.202;7.852;2023-04-24T23:24:54;3.13;;;2.35;;
29218;SDS011;16421;50.202;7.852;2023-04-24T23:29:58;3.85;;;2.15;;
29218;SDS011;16421;50.202;7.852;2023-04-24T23:35:02;2.20;;;1.92;;
29218;SDS011;16421;50.202;7.852;2023-04-24T23:40:07;1.92;;;1.73;;
29218;SDS011;16421;50.202;7.852;2023-04-24T23:45:12;2.72;;;1.80;;
29218;SDS011;16421;50.202;7.852;2023-04-24T23:50:16;3.92;;;2.40;;
29218;SDS011;16421;50.202;7.852;2023-04-24T23:55:19;3.78;;;2.17;;
